Saint-Alexandre, Canada
Current Conditions -  °F | °C
As of 8:53 PM on Friday 24 Oct 2014 (Local Time) from KFVE Reporting Station
Light Rain Light Rain  
Wind Chill: 31°   Ceiling: 4800
Heat Index: 38°   Visibility: 10mi
Dew Point: 36°   Wind: 10mph
Humidity: 93%   Direction: 350°N
Pressure: 29.7"   Gusts: NA
Location:  47.68°N, 69.63°W
Report Text: KFVE 250053Z AUTO 35009KT 10SM -RA OVC048 03/02 A2970 RMK AO2 SLP064 P0003 T00330022
Loading
Personal Weather Stations






























Interactive Weather Map
Tropical Storm Tracking
New forecast layout! Learn more

10-Day Weather Forecast

Advertisements
Track Severe Weather on mobile